Time;durP1;ratioP1;P1;durP2;ratioP2;P2;SDS_P1;SDS_P2;PMS_P1;PMS_P2;Temp;Humidity;BMP_temperature;BMP_pressure;BME280_temperature;BME280_humidity;BME280_pressure;Samples;Min_cycle;Max_cycle;Signal;HPM_P1;HPM_P2
2022/07/27 00:00:10;;;;;;;11.67;6.47;;;;;;;25.67;100.00;100610.72;2089273;28;20200;-63
2022/07/27 00:01:12;;;;;;;7.70;6.90;;;;;;;25.75;100.00;100620.13;2085705;28;20197;-63
2022/07/27 00:02:13;;;;;;;9.73;6.50;;;;;;;25.95;100.00;100650.09;2082811;28;20177;-63
2022/07/27 00:03:14;;;;;;;8.73;5.70;;;;;;;25.90;100.00;100648.06;2082782;28;20192;-63
2022/07/27 00:04:14;;;;;;;7.17;6.37;;;;;;;25.90;100.00;100645.25;2082603;28;20261;-63
2022/07/27 00:05:15;;;;;;;8.27;6.20;;;;;;;25.93;100.00;100644.16;2082777;28;20643;-63
2022/07/27 00:06:15;;;;;;;10.80;5.00;;;;;;;25.84;99.40;100639.63;2082967;28;20181;-63
2022/07/27 00:07:16;;;;;;;9.27;5.40;;;;;;;25.89;95.59;100646.53;2089643;28;20196;-63
2022/07/27 00:08:19;;;;;;;11.03;5.90;;;;;;;25.93;94.95;100647.00;2090529;28;20708;-63
2022/07/27 00:09:19;;;;;;;9.53;5.97;;;;;;;25.97;97.45;100642.56;2085009;28;20215;-63
2022/07/27 00:10:20;;;;;;;7.83;5.23;;;;;;;25.92;95.63;100634.13;2086928;28;20676;-63
2022/07/27 00:11:20;;;;;;;10.27;5.60;;;;;;;25.99;97.14;100648.47;2091136;28;20211;-63
2022/07/27 00:12:21;;;;;;;10.73;5.37;;;;;;;26.01;93.36;100636.59;2090528;28;20173;-63
2022/07/27 00:13:21;;;;;;;10.23;5.47;;;;;;;25.86;93.42;100622.84;2082079;28;20204;-63
2022/07/27 00:14:22;;;;;;;8.03;6.23;;;;;;;26.04;100.00;100641.16;2081824;28;20196;-63
2022/07/27 00:15:22;;;;;;;9.47;5.73;;;;;;;26.04;100.00;100644.00;2082728;28;20205;-63
2022/07/27 00:16:23;;;;;;;12.67;6.37;;;;;;;26.06;100.00;100642.16;2082871;28;20181;-63
2022/07/27 00:17:25;;;;;;;7.63;5.57;;;;;;;25.78;100.00;100604.09;2085889;28;20176;-63
2022/07/27 00:18:25;;;;;;;8.47;5.90;;;;;;;26.06;100.00;100642.16;2088532;28;20180;-63
2022/07/27 00:19:26;;;;;;;11.10;6.53;;;;;;;25.97;100.00;100616.25;2083968;28;20169;-63
2022/07/27 00:20:27;;;;;;;7.80;6.00;;;;;;;26.10;100.00;100648.31;2090630;28;20176;-63
2022/07/27 00:21:28;;;;;;;11.50;6.00;;;;;;;26.07;100.00;100642.94;2082745;28;20633;-63
2022/07/27 00:22:28;;;;;;;11.53;5.73;;;;;;;26.05;100.00;100645.56;2082557;28;20188;-63
2022/07/27 00:23:29;;;;;;;12.20;5.77;;;;;;;26.03;100.00;100648.94;2088981;28;20250;-63
2022/07/27 00:24:29;;;;;;;7.60;5.03;;;;;;;26.00;98.90;100652.84;2085298;28;20599;-63
2022/07/27 00:25:30;;;;;;;8.03;5.70;;;;;;;26.02;98.36;100647.41;2086661;28;20177;-63
2022/07/27 00:26:30;;;;;;;8.57;5.63;;;;;;;26.01;95.74;100650.78;2090527;28;20211;-63
2022/07/27 00:27:31;;;;;;;7.77;5.03;;;;;;;25.56;93.22;100590.22;2088915;28;20255;-63
2022/07/27 00:28:31;;;;;;;8.73;5.13;;;;;;;25.84;93.10;100642.47;2082559;28;20255;-63
2022/07/27 00:29:31;;;;;;;7.97;5.13;;;;;;;25.99;93.59;100662.66;2082727;28;20671;-63
2022/07/27 00:30:32;;;;;;;11.17;5.37;;;;;;;26.04;96.29;100656.16;2089378;28;20592;-63
2022/07/27 00:31:33;;;;;;;14.27;5.33;;;;;;;25.50;92.68;100573.28;2083758;28;20192;-63
2022/07/27 00:32:33;;;;;;;11.87;5.33;;;;;;;26.08;92.33;100658.66;2087947;28;20191;-63
2022/07/27 00:33:33;;;;;;;8.63;5.30;;;;;;;26.07;91.87;100659.97;2090407;28;20650;-63
2022/07/27 00:34:34;;;;;;;10.13;5.30;;;;;;;26.08;92.06;100661.50;2088645;28;20180;-63
2022/07/27 00:35:34;;;;;;;12.63;5.10;;;;;;;26.12;92.52;100659.91;2082967;28;20216;-63
2022/07/27 00:36:35;;;;;;;9.83;5.57;;;;;;;26.14;91.91;100662.97;2090931;28;20203;-63
2022/07/27 00:37:36;;;;;;;9.33;5.40;;;;;;;26.19;90.33;100667.03;2089989;28;20200;-63
2022/07/27 00:38:37;;;;;;;9.70;5.27;;;;;;;26.19;91.43;100661.34;2090267;28;20210;-63
2022/07/27 00:39:37;;;;;;;9.77;5.03;;;;;;;25.61;91.23;100580.88;2085990;28;20189;-63
2022/07/27 00:40:37;;;;;;;10.13;5.10;;;;;;;26.10;90.92;100670.28;2082537;28;20192;-63
2022/07/27 00:41:38;;;;;;;10.83;5.40;;;;;;;26.23;93.48;100658.97;2082477;28;20208;-63
2022/07/27 00:42:38;;;;;;;11.77;6.47;;;;;;;26.20;100.00;100666.50;2082609;28;20287;-63
2022/07/27 00:43:54;;;;;;;7.57;6.23;;;;;;;26.20;100.00;100669.31;2082475;28;20319;-63
2022/07/27 00:44:54;;;;;;;8.17;5.57;;;;;;;26.12;100.00;100654.22;2082578;28;20179;-63
2022/07/27 00:45:55;;;;;;;10.63;5.93;;;;;;;26.09;100.00;100665.88;2082702;28;20642;-63
2022/07/27 00:46:56;;;;;;;13.33;5.60;;;;;;;26.04;100.00;100661.81;2089859;28;20191;-63
2022/07/27 00:47:57;;;;;;;11.90;5.03;;;;;;;25.95;100.00;100652.94;2084092;28;20686;-63
2022/07/27 00:48:58;;;;;;;8.70;4.90;;;;;;;25.82;98.12;100638.63;2082660;28;20259;-62
2022/07/27 00:49:59;;;;;;;10.43;5.20;;;;;;;25.90;97.18;100651.66;2082622;28;20204;-63
2022/07/27 00:50:59;;;;;;;13.57;5.57;;;;;;;26.12;95.75;100665.59;2082689;28;20177;-63
2022/07/27 00:52:00;;;;;;;8.27;5.37;;;;;;;26.07;98.18;100657.16;2082612;28;20699;-63
2022/07/27 00:53:03;;;;;;;8.07;5.30;;;;;;;26.10;100.00;100664.59;2090670;28;20225;-63
2022/07/27 00:54:04;;;;;;;16.13;5.40;;;;;;;26.06;99.02;100661.28;2083116;28;20177;-63
2022/07/27 00:55:05;;;;;;;12.57;5.40;;;;;;;26.14;98.09;100670.72;2082293;28;20291;-63
2022/07/27 00:56:06;;;;;;;8.20;5.07;;;;;;;25.81;98.43;100622.91;2087093;28;20238;-63
2022/07/27 00:57:11;;;;;;;11.60;5.10;;;;;;;26.14;97.99;100673.56;2086789;28;20268;-62
2022/07/27 00:58:12;;;;;;;12.07;5.57;;;;;;;26.11;98.15;100668.97;2082141;28;20201;-63
2022/07/27 00:59:13;;;;;;;16.93;5.40;;;;;;;26.11;98.67;100672.56;2084173;28;20177;-63
2022/07/27 01:00:14;;;;;;;9.07;5.20;;;;;;;26.11;99.28;100666.88;2089517;28;20177;-63
2022/07/27 01:01:15;;;;;;;12.77;5.50;;;;;;;25.77;99.29;100620.38;2082481;28;20655;-63
2022/07/27 01:02:16;;;;;;;13.50;5.23;;;;;;;25.71;99.00;100616.84;2082769;28;20184;-63
2022/07/27 01:03:17;;;;;;;11.43;4.77;;;;;;;26.18;98.94;100674.78;2082327;28;20280;-63
2022/07/27 01:04:18;;;;;;;8.77;5.30;;;;;;;25.88;100.00;100625.91;2086950;28;20177;-63
2022/07/27 01:05:18;;;;;;;8.00;5.07;;;;;;;26.22;100.00;100674.47;2087705;28;20230;-63
2022/07/27 01:06:19;;;;;;;12.27;5.20;;;;;;;26.24;100.00;100677.53;2083880;28;20570;-63
2022/07/27 01:07:21;;;;;;;12.50;5.17;;;;;;;25.77;99.33;100608.25;2090001;28;20168;-63
2022/07/27 01:08:21;;;;;;;12.43;4.93;;;;;;;26.24;100.00;100674.69;2082507;28;20623;-63
2022/07/27 01:10:43;;;;;;;9.00;5.63;;;;;;;26.33;100.00;100677.94;2082484;28;20218;-63
2022/07/27 01:11:44;;;;;;;11.77;5.13;;;;;;;26.34;100.00;100684.34;2089615;28;20191;-63
2022/07/27 01:12:45;;;;;;;15.73;5.20;;;;;;;26.36;100.00;100676.06;2082992;28;20200;-63
2022/07/27 01:13:45;;;;;;;11.03;5.40;;;;;;;26.44;100.00;100682.66;2087550;28;20192;-63
2022/07/27 01:14:48;;;;;;;15.80;5.23;;;;;;;26.00;99.47;100623.69;2085925;28;20199;-63
2022/07/27 01:15:49;;;;;;;15.07;5.53;;;;;;;26.51;99.71;100685.63;2085807;28;20661;-63
2022/07/27 01:16:50;;;;;;;15.60;5.20;;;;;;;26.50;100.00;100686.16;2090209;28;20245;-63
2022/07/27 01:17:51;;;;;;;12.23;5.60;;;;;;;26.48;100.00;100681.03;2088860;28;20184;-62
2022/07/27 01:18:51;;;;;;;10.93;5.73;;;;;;;26.49;100.00;100682.56;2082358;28;20263;-63
2022/07/27 01:19:53;;;;;;;11.50;5.33;;;;;;;26.51;99.97;100682.03;2090585;28;20196;-63
2022/07/27 01:20:54;;;;;;;11.43;5.23;;;;;;;26.51;100.00;100684.88;2090515;28;20220;-63
2022/07/27 01:21:55;;;;;;;11.63;5.87;;;;;;;26.09;100.00;100629.75;2083989;28;20181;-63
2022/07/27 01:22:55;;;;;;;8.43;5.40;;;;;;;26.50;100.00;100686.16;2085724;28;20188;-63
2022/07/27 01:23:56;;;;;;;9.40;5.40;;;;;;;26.48;100.00;100692.41;2087844;28;20208;-63
2022/07/27 01:24:56;;;;;;;12.90;5.50;;;;;;;26.48;100.00;100691.63;2083120;28;20292;-62
2022/07/27 01:25:57;;;;;;;10.53;5.57;;;;;;;26.42;100.00;100685.28;2090336;28;20180;-63
2022/07/27 01:27:00;;;;;;;10.10;5.20;;;;;;;26.42;100.00;100686.06;2081965;28;20260;-63
2022/07/27 01:28:01;;;;;;;11.77;5.60;;;;;;;26.36;100.00;100684.59;2082231;28;20174;-63
2022/07/27 01:29:01;;;;;;;11.60;5.43;;;;;;;26.10;100.00;100642.63;2082076;28;20184;-63
2022/07/27 01:30:25;;;;;;;9.03;5.17;;;;;;;26.48;100.00;100688.78;2084569;28;20661;-63
2022/07/27 01:31:23;;;;;;;7.70;5.60;;;;;;;26.05;100.00;100617.91;2089799;28;20198;-63
2022/07/27 01:32:23;;;;;;;10.27;5.70;;;;;;;26.43;100.00;100686.81;2090182;28;20196;-63
2022/07/27 01:33:27;;;;;;;14.63;5.30;;;;;;;26.45;100.00;100687.03;2090236;28;20268;-63
2022/07/27 01:34:27;;;;;;;14.07;6.00;;;;;;;26.44;100.00;100689.13;2088884;28;20184;-63
2022/07/27 01:35:28;;;;;;;13.80;5.53;;;;;;;26.35;100.00;100677.38;2081964;28;20694;-63
2022/07/27 01:36:29;;;;;;;10.97;5.20;;;;;;;26.12;100.00;100642.09;2090507;28;20314;-63
2022/07/27 01:37:29;;;;;;;12.63;5.10;;;;;;;26.43;100.00;100689.66;2082872;28;20203;-63
2022/07/27 01:38:30;;;;;;;11.83;5.30;;;;;;;26.17;100.00;100655.44;2088264;28;20184;-63
2022/07/27 01:39:31;;;;;;;15.03;5.63;;;;;;;26.43;100.00;100692.47;2090213;28;20636;-63
2022/07/27 01:40:32;;;;;;;10.27;5.50;;;;;;;26.45;100.00;100698.41;2089367;28;20200;-63
2022/07/27 01:41:33;;;;;;;11.20;5.03;;;;;;;25.99;100.00;100636.38;2089244;28;20180;-63
2022/07/27 01:42:34;;;;;;;13.43;5.93;;;;;;;25.93;100.00;100633.59;2083589;28;20204;-63
2022/07/27 01:43:34;;;;;;;12.57;5.80;;;;;;;26.36;100.00;100705.25;2089643;28;20200;-63
2022/07/27 01:44:35;;;;;;;11.03;5.20;;;;;;;26.37;100.00;100695.44;2082116;28;20180;-63
2022/07/27 01:45:35;;;;;;;7.67;5.37;;;;;;;26.02;100.00;100640.94;2089367;28;20219;-63
2022/07/27 01:46:36;;;;;;;19.13;5.93;;;;;;;26.22;100.00;100675.25;2083754;28;20193;-63
2022/07/27 01:47:36;;;;;;;10.70;5.80;;;;;;;26.40;100.00;100693.59;2086915;28;20274;-63
2022/07/27 01:48:37;;;;;;;16.43;6.17;;;;;;;26.43;100.00;100698.94;2086375;28;20569;-63
2022/07/27 01:49:37;;;;;;;15.07;6.20;;;;;;;26.45;100.00;100695.56;2088917;28;20184;-63
2022/07/27 01:50:38;;;;;;;13.23;5.90;;;;;;;25.94;100.00;100632.28;2090379;28;20182;-63
2022/07/27 01:51:39;;;;;;;14.93;5.53;;;;;;;26.39;100.00;100689.19;2090202;28;20204;-63
2022/07/27 01:52:39;;;;;;;11.27;5.80;;;;;;;26.30;100.00;100683.91;2082165;28;20235;-63
2022/07/27 01:53:40;;;;;;;10.63;6.07;;;;;;;26.41;100.00;100697.94;2082037;28;20579;-63
2022/07/27 01:54:40;;;;;;;11.63;5.87;;;;;;;25.97;100.00;100634.06;2082088;28;20180;-63
2022/07/27 01:55:41;;;;;;;15.77;5.90;;;;;;;26.06;100.00;100656.38;2085639;28;20242;-63
2022/07/27 01:56:42;;;;;;;10.03;5.77;;;;;;;26.27;100.00;100685.00;2086323;28;20185;-63
2022/07/27 01:57:42;;;;;;;15.27;6.07;;;;;;;26.32;100.00;100690.59;2083913;28;20181;-63
2022/07/27 01:58:43;;;;;;;15.67;6.20;;;;;;;26.31;100.00;100693.97;2090262;28;20180;-63
2022/07/27 01:59:43;;;;;;;13.00;5.63;;;;;;;26.33;100.00;100694.97;2090103;28;20196;-63
2022/07/27 02:00:44;;;;;;;15.90;6.00;;;;;;;26.33;100.00;100697.03;2082920;28;20212;-63
2022/07/27 02:01:45;;;;;;;14.73;6.00;;;;;;;26.35;100.00;100692.34;2088043;28;20618;-63
2022/07/27 02:02:46;;;;;;;11.10;5.87;;;;;;;26.29;100.00;100694.50;2085482;28;20671;-63
2022/07/27 02:03:46;;;;;;;16.20;6.33;;;;;;;26.29;100.00;100699.41;2082071;28;20193;-63
2022/07/27 02:04:47;;;;;;;11.33;5.70;;;;;;;25.85;100.00;100640.41;2082113;28;20246;-63
2022/07/27 02:05:47;;;;;;;13.83;5.70;;;;;;;26.02;100.00;100658.00;2082765;28;20181;-62
2022/07/27 02:06:48;;;;;;;15.83;6.50;;;;;;;26.27;100.00;100697.13;2090230;28;20218;-63
2022/07/27 02:07:48;;;;;;;13.20;6.40;;;;;;;26.26;100.00;100700.50;2082273;28;20284;-63
2022/07/27 02:08:49;;;;;;;13.30;5.80;;;;;;;26.25;100.00;100701.81;2087247;28;20188;-63
2022/07/27 02:09:49;;;;;;;14.33;5.73;;;;;;;26.28;100.00;100700.72;2085209;28;20613;-63
2022/07/27 02:13:28;;;;;;;18.33;6.40;;;;;;;26.18;100.00;100700.34;2081625;28;20188;-63
2022/07/27 02:14:29;;;;;;;15.00;6.27;;;;;;;26.23;100.00;100701.56;2086042;28;20203;-63
2022/07/27 02:15:29;;;;;;;14.07;5.87;;;;;;;26.23;100.00;100698.72;2089382;28;20207;-63
2022/07/27 02:16:30;;;;;;;13.20;5.87;;;;;;;26.27;100.00;100699.19;2088354;28;20184;-63
2022/07/27 02:17:30;;;;;;;15.77;5.93;;;;;;;26.06;100.00;100684.00;2081871;28;20262;-63
2022/07/27 02:18:31;;;;;;;14.00;6.00;;;;;;;26.12;100.00;100699.69;2090164;28;20231;-63
2022/07/27 02:19:31;;;;;;;10.00;5.80;;;;;;;26.11;100.00;100703.78;2082312;28;20713;-63
2022/07/27 02:20:33;;;;;;;16.53;6.30;;;;;;;26.10;100.00;100695.84;2087873;28;20192;-63
2022/07/27 02:21:33;;;;;;;12.97;5.73;;;;;;;26.12;100.00;100699.69;2090079;28;20263;-63
2022/07/27 02:22:34;;;;;;;15.27;5.87;;;;;;;26.10;100.00;100704.34;2085771;28;20188;-63
2022/07/27 02:23:36;;;;;;;13.47;6.13;;;;;;;26.11;100.00;100703.03;2082077;28;20227;-63
2022/07/27 02:24:36;;;;;;;10.53;5.83;;;;;;;25.72;100.00;100646.78;2080618;28;20334;-63
2022/07/27 02:25:37;;;;;;;9.03;6.10;;;;;;;26.07;100.00;100705.41;2081144;28;20165;-63
2022/07/27 02:26:38;;;;;;;15.50;6.10;;;;;;;26.02;100.00;100697.75;2081835;28;20172;-63
2022/07/27 02:27:40;;;;;;;11.13;5.80;;;;;;;26.04;100.00;100695.91;2088882;28;20243;-63
2022/07/27 02:28:41;;;;;;;12.20;6.30;;;;;;;26.02;100.00;100698.53;2083645;28;20193;-63
2022/07/27 02:29:41;;;;;;;17.67;5.90;;;;;;;25.65;100.00;100649.44;2086654;28;20241;-63
2022/07/27 02:30:42;;;;;;;13.23;6.10;;;;;;;26.00;100.00;100708.88;2089267;28;20192;-63
2022/07/27 02:31:42;;;;;;;13.93;6.40;;;;;;;25.87;100.00;100683.22;2087476;28;20186;-63
2022/07/27 02:32:43;;;;;;;13.07;5.90;;;;;;;26.00;100.00;100706.78;2082881;28;20185;-63
2022/07/27 02:33:43;;;;;;;13.00;5.90;;;;;;;26.01;100.00;100704.75;2089994;28;20172;-63
2022/07/27 02:34:44;;;;;;;16.37;6.20;;;;;;;25.91;100.00;100695.84;2081416;28;20236;-63
2022/07/27 02:35:44;;;;;;;13.27;6.10;;;;;;;25.85;100.00;100703.63;2087378;28;20236;-63
2022/07/27 02:36:45;;;;;;;11.87;6.63;;;;;;;25.83;100.00;100700.56;2090050;28;20639;-63
2022/07/27 02:37:47;;;;;;;10.93;6.40;;;;;;;25.78;100.00;100707.06;2089578;28;20188;-63
2022/07/27 02:38:47;;;;;;;12.00;6.30;;;;;;;25.21;100.00;100624.41;2085763;28;20197;-63
2022/07/27 02:39:48;;;;;;;14.03;6.30;;;;;;;25.81;100.00;100710.91;2081066;28;20723;-63
2022/07/27 02:40:48;;;;;;;9.37;6.53;;;;;;;25.77;100.00;100705.53;2081733;28;20540;-63
2022/07/27 02:41:49;;;;;;;7.50;6.00;;;;;;;25.77;100.00;100708.38;2081772;28;20219;-63
2022/07/27 02:42:49;;;;;;;16.00;6.17;;;;;;;25.40;100.00;100656.47;2088943;28;20190;-63
2022/07/27 02:43:50;;;;;;;13.00;6.47;;;;;;;25.80;100.00;100700.88;2083291;28;20193;-63
2022/07/27 02:44:50;;;;;;;12.23;6.03;;;;;;;25.80;100.00;100709.38;2081762;28;20192;-63
2022/07/27 02:45:51;;;;;;;10.83;6.40;;;;;;;25.70;100.00;100699.69;2081646;28;20709;-63
2022/07/27 02:46:51;;;;;;;10.80;6.07;;;;;;;25.85;100.00;100712.13;2080770;28;20647;-62
2022/07/27 02:47:52;;;;;;;9.40;6.17;;;;;;;25.84;100.00;100710.59;2082653;28;20239;-63
2022/07/27 02:48:52;;;;;;;10.93;6.00;;;;;;;25.72;100.00;100695.03;2089364;28;20569;-65
2022/07/27 02:49:53;;;;;;;11.73;6.20;;;;;;;25.83;100.00;100716.81;2081762;28;20177;-65
2022/07/27 02:50:58;;;;;;;13.60;6.00;;;;;;;25.84;100.00;100709.84;2081306;28;20188;-65
2022/07/27 02:51:58;;;;;;;10.43;5.70;;;;;;;25.84;100.00;100726.88;2087696;28;20199;-65
2022/07/27 02:52:59;;;;;;;8.83;5.90;;;;;;;25.86;100.00;100718.59;2084817;28;20201;-65
2022/07/27 02:53:59;;;;;;;11.07;6.30;;;;;;;25.84;100.00;100718.38;2084009;28;20658;-65
2022/07/27 02:55:00;;;;;;;10.57;6.20;;;;;;;25.51;100.00;100668.47;2083058;28;20308;-66
2022/07/27 02:56:00;;;;;;;9.60;6.27;;;;;;;25.74;100.00;100705.84;2089429;28;20268;-65
2022/07/27 02:57:04;;;;;;;11.17;6.60;;;;;;;25.74;100.00;100720.03;2081669;28;20229;-65
2022/07/27 02:58:04;;;;;;;10.93;6.40;;;;;;;25.80;100.00;100723.56;2081611;28;20228;-63
2022/07/27 02:59:05;;;;;;;8.83;6.03;;;;;;;25.46;100.00;100677.81;2088045;28;20184;-62
2022/07/27 03:00:10;;;;;;;10.20;6.23;;;;;;;25.84;100.00;100732.56;2084256;28;20177;-63
2022/07/27 03:01:10;;;;;;;11.63;6.80;;;;;;;25.79;100.00;100728.47;2086303;28;20679;-62
2022/07/27 03:02:11;;;;;;;10.97;6.40;;;;;;;25.85;100.00;100726.31;2085932;28;20581;-63
2022/07/27 03:03:12;;;;;;;14.80;6.80;;;;;;;25.85;100.00;100734.84;2084240;28;20233;-63
2022/07/27 03:04:13;;;;;;;11.53;5.77;;;;;;;25.82;100.00;100730.25;2087256;28;20188;-62
2022/07/27 03:05:13;;;;;;;10.00;6.80;;;;;;;25.78;100.00;100737.50;2081334;28;20173;-63
2022/07/27 03:06:14;;;;;;;13.03;6.00;;;;;;;25.64;100.00;100702.59;2089884;28;20709;-63
2022/07/27 03:07:14;;;;;;;11.77;5.90;;;;;;;25.86;100.00;100733.56;2088764;28;20209;-63
2022/07/27 03:08:15;;;;;;;9.67;6.17;;;;;;;25.90;100.00;100730.41;2089239;28;20259;-63
2022/07/27 03:09:15;;;;;;;11.10;6.10;;;;;;;25.92;100.00;100742.03;2091586;28;20199;-63
2022/07/27 03:10:16;;;;;;;14.17;6.70;;;;;;;25.88;100.00;100739.47;2093038;28;20211;-63
2022/07/27 03:11:16;;;;;;;11.57;6.67;;;;;;;25.89;100.00;100741.00;2089839;28;20180;-63
2022/07/27 03:12:17;;;;;;;10.27;6.20;;;;;;;25.83;100.00;100745.97;2089860;28;20168;-63
2022/07/27 03:13:17;;;;;;;12.83;6.40;;;;;;;25.55;100.00;100716.38;2088839;28;20234;-62
2022/07/27 03:14:18;;;;;;;11.23;6.40;;;;;;;25.82;100.00;100743.66;2081562;28;20205;-62
2022/07/27 03:15:19;;;;;;;10.27;6.27;;;;;;;25.24;100.00;100657.41;2097235;28;20206;-63
2022/07/27 03:16:19;;;;;;;8.90;6.00;;;;;;;25.86;100.00;100755.50;2091110;28;20220;-63
2022/07/27 03:17:20;;;;;;;12.57;6.23;;;;;;;25.69;100.00;100712.34;2084027;28;20185;-63
2022/07/27 03:18:20;;;;;;;11.50;6.43;;;;;;;25.45;100.00;100689.69;2081284;28;20189;-63
2022/07/27 03:19:21;;;;;;;12.13;5.97;;;;;;;25.87;100.00;100749.28;2081327;28;20713;-63
2022/07/27 03:20:21;;;;;;;13.40;5.97;;;;;;;25.88;100.00;100750.81;2082427;28;20236;-63
2022/07/27 03:21:22;;;;;;;13.80;6.90;;;;;;;25.87;100.00;100752.13;2090055;28;20234;-62
2022/07/27 03:22:22;;;;;;;10.13;6.00;;;;;;;25.87;100.00;100751.34;2098031;28;20178;-63
2022/07/27 03:23:23;;;;;;;8.17;6.03;;;;;;;25.87;100.00;100752.13;2089205;28;20192;-62
2022/07/27 03:24:23;;;;;;;11.00;6.80;;;;;;;25.92;100.00;100747.69;2089414;28;20180;-63
2022/07/27 03:25:24;;;;;;;13.27;6.77;;;;;;;25.93;100.00;100744.34;2089512;28;20226;-62
2022/07/27 03:26:25;;;;;;;13.00;6.73;;;;;;;25.34;100.00;100658.59;2085324;28;20176;-62
2022/07/27 03:27:26;;;;;;;13.03;6.40;;;;;;;25.25;100.00;100656.91;2084578;28;20239;-62
2022/07/27 03:28:26;;;;;;;11.97;6.37;;;;;;;25.87;100.00;100752.13;2087355;28;20290;-62
2022/07/27 03:29:27;;;;;;;14.13;6.90;;;;;;;25.74;100.00;100737.06;2082181;28;20379;-63
2022/07/27 03:30:27;;;;;;;10.10;6.00;;;;;;;25.81;100.00;100748.59;2089725;28;20203;-63
2022/07/27 03:31:28;;;;;;;13.20;6.50;;;;;;;25.90;100.00;100762.41;2089276;28;20234;-63
2022/07/27 03:32:28;;;;;;;11.67;6.67;;;;;;;25.86;100.00;100761.16;2082513;28;20246;-62
2022/07/27 03:33:29;;;;;;;10.40;6.23;;;;;;;25.84;100.00;100760.94;2081279;28;20196;-63
2022/07/27 03:34:29;;;;;;;11.53;6.50;;;;;;;25.44;100.00;100705.16;2081308;28;20185;-63
2022/07/27 03:35:30;;;;;;;10.23;6.73;;;;;;;25.75;100.00;100756.38;2084683;28;20235;-63
2022/07/27 03:36:30;;;;;;;8.53;6.73;;;;;;;25.70;100.00;100754.38;2088791;28;20202;-63
2022/07/27 03:37:31;;;;;;;9.60;6.47;;;;;;;25.72;100.00;100762.38;2089392;28;20601;-63
2022/07/27 03:38:31;;;;;;;11.10;6.50;;;;;;;25.66;100.00;100750.31;2089607;28;20230;-63
2022/07/27 03:39:32;;;;;;;10.43;6.73;;;;;;;25.62;100.00;100752.69;2089616;28;20637;-62
2022/07/27 03:40:33;;;;;;;11.13;6.67;;;;;;;25.69;100.00;100758.53;2089312;28;20192;-63
2022/07/27 03:41:33;;;;;;;10.00;6.30;;;;;;;25.05;100.00;100670.75;2088711;28;20188;-63
2022/07/27 03:42:34;;;;;;;10.17;6.50;;;;;;;25.66;100.00;100759.59;2089030;28;20172;-63
2022/07/27 03:43:34;;;;;;;12.10;6.77;;;;;;;25.64;100.00;100764.28;2082557;28;20191;-62
2022/07/27 03:44:35;;;;;;;11.47;6.80;;;;;;;25.68;100.00;100754.16;2089610;28;20179;-63
2022/07/27 03:45:36;;;;;;;11.93;6.70;;;;;;;25.67;100.00;100761.13;2089591;28;20250;-63
2022/07/27 03:46:36;;;;;;;11.20;6.40;;;;;;;25.23;100.00;100693.50;2088797;28;20192;-63
2022/07/27 03:47:37;;;;;;;10.83;6.57;;;;;;;25.71;100.00;100760.84;2088665;28;20569;-63
2022/07/27 03:48:38;;;;;;;11.80;6.70;;;;;;;25.75;100.00;100753.53;2085157;28;20212;-63
2022/07/27 03:49:39;;;;;;;16.47;7.17;;;;;;;25.58;100.00;100744.47;2081400;28;20249;-63
2022/07/27 03:50:39;;;;;;;10.10;6.30;;;;;;;25.58;100.00;100738.78;2081351;28;20646;-63
2022/07/27 03:51:40;;;;;;;10.60;6.87;;;;;;;25.70;100.00;100765.72;2081066;28;20188;-65
2022/07/27 03:52:40;;;;;;;10.40;6.43;;;;;;;25.59;100.00;100756.59;2081408;28;20235;-63
2022/07/27 03:53:40;;;;;;;9.47;6.77;;;;;;;25.52;100.00;100728.78;2081418;28;20207;-63
2022/07/27 03:54:41;;;;;;;12.43;6.97;;;;;;;25.73;100.00;100769.56;2085484;28;20195;-62
2022/07/27 03:55:42;;;;;;;15.23;6.43;;;;;;;25.77;100.00;100768.00;2084699;28;20208;-65
2022/07/27 03:56:46;;;;;;;9.57;6.00;;;;;;;25.81;100.00;100764.84;2083845;28;20192;-65
2022/07/27 03:57:46;;;;;;;10.50;6.07;;;;;;;25.41;100.00;100712.69;2089474;28;20183;-65
2022/07/27 03:58:47;;;;;;;14.80;6.37;;;;;;;25.78;100.00;100766.69;2088732;28;20188;-65
2022/07/27 03:59:47;;;;;;;12.83;6.47;;;;;;;25.72;100.00;100768.03;2080652;28;20200;-65
2022/07/27 04:00:49;;;;;;;10.27;6.37;;;;;;;25.78;100.00;100771.56;2088634;28;20238;-63
2022/07/27 04:01:49;;;;;;;13.23;6.70;;;;;;;25.14;100.00;100670.41;2082253;28;20287;-63
2022/07/27 04:02:50;;;;;;;9.53;6.50;;;;;;;25.26;100.00;100688.84;2087035;28;20251;-63
2022/07/27 04:03:51;;;;;;;10.00;6.30;;;;;;;25.89;100.00;100775.06;2088821;28;20207;-63
2022/07/27 04:04:51;;;;;;;13.73;6.50;;;;;;;25.86;100.00;100775.38;2088687;28;20215;-63
2022/07/27 04:05:52;;;;;;;10.13;6.33;;;;;;;25.93;100.00;100778.41;2081324;28;20188;-63
2022/07/27 04:06:52;;;;;;;9.10;6.53;;;;;;;25.97;100.00;100775.25;2081069;28;20173;-62
2022/07/27 04:07:53;;;;;;;11.07;6.20;;;;;;;25.81;100.00;100754.28;2080659;28;20203;-63
2022/07/27 04:08:53;;;;;;;11.90;6.30;;;;;;;25.94;100.00;100773.50;2088166;28;20180;-62
2022/07/27 04:09:54;;;;;;;7.93;5.97;;;;;;;25.98;100.00;100771.88;2081336;28;20558;-63
2022/07/27 04:10:54;;;;;;;7.83;6.27;;;;;;;26.04;100.00;100783.16;2080886;28;20228;-63
2022/07/27 04:11:55;;;;;;;8.37;5.90;;;;;;;25.53;100.00;100711.25;2084746;28;20186;-63
2022/07/27 04:12:55;;;;;;;13.20;6.57;;;;;;;26.08;100.00;100772.28;2089074;28;20709;-63
2022/07/27 04:13:56;;;;;;;12.60;6.40;;;;;;;25.51;100.00;100682.66;2089070;28;20176;-63
2022/07/27 04:14:57;;;;;;;11.47;6.60;;;;;;;26.10;100.00;100778.19;2089305;28;20264;-62
2022/07/27 04:15:57;;;;;;;11.23;6.77;;;;;;;26.16;100.00;100771.13;2089394;28;20724;-63
2022/07/27 04:16:58;;;;;;;9.37;6.17;;;;;;;26.18;100.00;100779.88;2082387;28;20193;-63
2022/07/27 04:17:58;;;;;;;9.47;6.40;;;;;;;26.22;100.00;100774.69;2081172;28;20196;-63
2022/07/27 04:18:59;;;;;;;11.63;6.30;;;;;;;26.28;100.00;100775.38;2081225;28;20193;-63
2022/07/27 04:19:59;;;;;;;7.63;6.10;;;;;;;25.74;100.00;100697.34;2084862;28;20648;-63
2022/07/27 04:21:02;;;;;;;10.20;6.00;;;;;;;26.37;100.00;100777.06;2089145;28;20210;-63
2022/07/27 04:22:02;;;;;;;9.30;6.43;;;;;;;25.98;100.00;100703.75;2088731;28;20207;-63
2022/07/27 04:23:03;;;;;;;9.23;6.00;;;;;;;26.43;100.00;100775.66;2088873;28;20180;-63
2022/07/27 04:24:04;;;;;;;12.33;6.40;;;;;;;25.80;100.00;100695.19;2089242;28;20281;-63
2022/07/27 04:25:05;;;;;;;8.77;6.07;;;;;;;26.38;100.00;100775.75;2085409;28;20232;-63
2022/07/27 04:26:06;;;;;;;7.00;5.90;;;;;;;26.14;100.00;100747.41;2082907;28;20195;-63
2022/07/27 04:27:06;;;;;;;7.77;5.97;;;;;;;25.95;100.00;100696.28;2092516;28;20267;-63
2022/07/27 04:28:07;;;;;;;11.93;6.27;;;;;;;26.53;100.00;100776.03;2095611;28;20181;-62
2022/07/27 04:29:07;;;;;;;9.33;6.13;;;;;;;26.50;100.00;100766.50;2094169;28;20195;-62
2022/07/27 04:30:08;;;;;;;9.00;6.27;;;;;;;26.48;100.00;100774.03;2089226;28;20204;-62
2022/07/27 04:31:09;;;;;;;12.03;6.13;;;;;;;26.53;100.00;100764.66;2092485;28;20187;-62
2022/07/27 04:32:09;;;;;;;8.30;5.97;;;;;;;26.55;100.00;100768.53;2090081;28;20229;-62
2022/07/27 04:33:09;;;;;;;8.63;5.73;;;;;;;26.25;100.00;100727.38;2089981;28;20657;-62
2022/07/27 04:34:10;;;;;;;7.97;6.17;;;;;;;26.52;100.00;100780.19;2091929;28;20206;-62
2022/07/27 04:35:10;;;;;;;7.73;6.43;;;;;;;26.55;100.00;100771.38;2089242;28;20227;-62
2022/07/27 04:36:11;;;;;;;8.53;6.30;;;;;;;26.17;100.00;100717.94;2090928;28;20204;-62
2022/07/27 04:37:12;;;;;;;11.57;6.40;;;;;;;26.57;100.00;100774.44;2085641;28;20282;-62
2022/07/27 04:38:12;;;;;;;9.93;6.03;;;;;;;26.60;100.00;100778.28;2092483;28;20180;-62
2022/07/27 04:39:12;;;;;;;8.33;6.60;;;;;;;26.55;100.00;100774.22;2094337;28;20183;-62
2022/07/27 04:40:13;;;;;;;7.30;5.90;;;;;;;26.56;100.00;100777.84;2092474;28;20680;-62
2022/07/27 04:41:13;;;;;;;9.30;6.30;;;;;;;26.06;100.00;100698.97;2094409;28;20219;-61